PWSweather.com
Personal Weather Stations
Station Observations
NCOUTPOST
Sheer Clifftop Utah Mountain, Waynesville, NC 28785

Sheer Clifftop Utah MountainWaynesville, NC 28785

Lat: 35.548, Lon: -82.982

Elevation: 3500

Station Type: Davis VUE 6250

Latest ConditionsUpdated 2:12:08 AM EDT Monday, Jul 28, 2014
Currently Today's Max Today's Min Today's Average
Temperature 62.4°F16.9°C 66.8°F19.3°C 62.4°F16.9°C 64.1°F17.8°C
Dew Point 61.8°F16.6°C 65.6°F18.7°C 61.6°F16.4°C 62.9°F17.2°C
Winds Calm Calm 6.0 mph WSW9.7 kmh WSW - 1.3 mph 2.1 kmh
Wind Gusts 1.0 mph1.6 kmh 9.0 mph14.5 kmh - -
Humidity 98% 98% 91% 96%
Pressure 29.78 in1008.5 mb 29.79 in1008.8 mb 29.73 in1006.8 mb -
Hour Temp Dew Point Humidity Winds Wind Gusts Pressure Precip Precip Rate Daily Precip Total
02:12 AM 62.4°F16.9°C 61.8°F16.6°C 98% Calm Calm 1.0 mph1.6 kmh 29.78 in1008.5 mb 0.63 in16.0 mm 0.00 in/hr0.0 mm/hr 0.80 in20.3 mm
02:11 AM 62.4°F16.9°C 61.8°F16.6°C 98% 1.0 mph E1.6 kmh E 1.0 mph1.6 kmh 29.77 in1008.1 mb 0.63 in16.0 mm 0.00 in/hr0.0 mm/hr 0.80 in20.3 mm
02:10 AM 62.4°F16.9°C 61.8°F16.6°C 98% Calm Calm -- 29.78 in1008.5 mb 0.63 in16.0 mm 0.00 in/hr0.0 mm/hr 0.80 in20.3 mm
02:09 AM 62.4°F16.9°C 61.8°F16.6°C 98% Calm Calm -- 29.78 in1008.5 mb 0.63 in16.0 mm 0.00 in/hr0.0 mm/hr 0.80 in20.3 mm
02:08 AM 62.4°F16.9°C 61.8°F16.6°C 98% Calm Calm -- 29.78 in1008.5 mb 0.63 in16.0 mm 0.60 in/hr15.2 mm/hr 0.80 in20.3 mm
02:07 AM 62.4°F16.9°C 61.8°F16.6°C 98% Calm Calm -- 29.77 in1008.1 mb 0.62 in15.7 mm 0.00 in/hr0.0 mm/hr 0.79 in20.1 mm
02:06 AM 62.5°F16.9°C 61.9°F16.6°C 98% Calm Calm -- 29.78 in1008.5 mb 0.62 in15.7 mm 0.60 in/hr15.2 mm/hr 0.79 in20.1 mm
02:05 AM 62.5°F16.9°C 61.9°F16.6°C 98% Calm Calm -- 29.78 in1008.5 mb 0.61 in15.5 mm 0.00 in/hr0.0 mm/hr 0.78 in19.8 mm
02:04 AM 62.5°F16.9°C 61.9°F16.6°C 98% Calm Calm -- 29.78 in1008.5 mb 0.61 in15.5 mm 0.00 in/hr0.0 mm/hr 0.78 in19.8 mm
02:03 AM 62.5°F16.9°C 61.9°F16.6°C 98% Calm Calm -- 29.78 in1008.5 mb 0.61 in15.5 mm 0.60 in/hr15.2 mm/hr 0.78 in19.8 mm
02:02 AM 62.5°F16.9°C 61.9°F16.6°C 98% Calm Calm -- 29.78 in1008.5 mb 0.60 in15.2 mm 0.00 in/hr0.0 mm/hr 0.77 in19.6 mm
02:01 AM 62.6°F17.0°C 62.0°F16.7°C 98% Calm Calm 3.0 mph4.8 kmh 29.78 in1008.5 mb 0.61 in15.5 mm 0.00 in/hr0.0 mm/hr 0.77 in19.6 mm
02:00 AM 62.6°F17.0°C 62.0°F16.7°C 98% Calm Calm 3.0 mph4.8 kmh 29.78 in1008.5 mb 0.61 in15.5 mm 0.01 in/hr0.3 mm/hr 0.77 in19.6 mm
01:59 AM 62.6°F17.0°C 62.0°F16.7°C 98% Calm Calm 3.0 mph4.8 kmh 29.78 in1008.5 mb 0.60 in15.2 mm 0.60 in/hr15.2 mm/hr 0.76 in19.3 mm
01:58 AM 62.6°F17.0°C 62.0°F16.7°C 98% Calm Calm 3.0 mph4.8 kmh 29.78 in1008.5 mb 0.59 in15.0 mm 0.00 in/hr0.0 mm/hr 0.75 in19.1 mm
01:57 AM 62.6°F17.0°C 62.0°F16.7°C 98% Calm Calm 3.0 mph4.8 kmh 29.78 in1008.5 mb 0.59 in15.0 mm 0.60 in/hr15.2 mm/hr 0.75 in19.1 mm
01:56 AM 62.7°F17.1°C 62.1°F16.7°C 98% Calm Calm 3.0 mph4.8 kmh 29.78 in1008.5 mb 0.58 in14.7 mm 0.00 in/hr0.0 mm/hr 0.74 in18.8 mm
01:55 AM 62.7°F17.1°C 62.1°F16.7°C 98% 1.0 mph E1.6 kmh E 3.0 mph4.8 kmh 29.78 in1008.5 mb 0.58 in14.7 mm 0.60 in/hr15.2 mm/hr 0.74 in18.8 mm
01:54 AM 62.6°F17.0°C 62.0°F16.7°C 98% 1.0 mph E1.6 kmh E 3.0 mph4.8 kmh 29.78 in1008.5 mb 0.57 in14.5 mm 0.00 in/hr0.0 mm/hr 0.73 in18.5 mm
01:53 AM 62.6°F17.0°C 62.0°F16.7°C 98% 1.0 mph E1.6 kmh E 3.0 mph4.8 kmh 29.78 in1008.5 mb 0.57 in14.5 mm 0.00 in/hr0.0 mm/hr 0.73 in18.5 mm
01:52 AM 62.6°F17.0°C 62.0°F16.7°C 98% Calm Calm 3.0 mph4.8 kmh 29.78 in1008.5 mb 0.57 in14.5 mm 0.60 in/hr15.2 mm/hr 0.73 in18.5 mm
01:51 AM 62.7°F17.1°C 62.1°F16.7°C 98% 1.0 mph ESE1.6 kmh ESE 3.0 mph4.8 kmh 29.78 in1008.5 mb 0.56 in14.2 mm 0.00 in/hr0.0 mm/hr 0.72 in18.3 mm
01:50 AM 62.7°F17.1°C 62.1°F16.7°C 98% Calm Calm 3.0 mph4.8 kmh 29.78 in1008.5 mb 0.56 in14.2 mm 0.60 in/hr15.2 mm/hr 0.72 in18.3 mm
01:49 AM 62.6°F17.0°C 62.0°F16.7°C 98% Calm Calm 3.0 mph4.8 kmh 29.78 in1008.5 mb 0.55 in14.0 mm 0.00 in/hr0.0 mm/hr 0.71 in18.0 mm
01:48 AM 62.6°F17.0°C 62.0°F16.7°C 98% Calm Calm 3.0 mph4.8 kmh 29.78 in1008.5 mb 0.55 in14.0 mm 0.00 in/hr0.0 mm/hr 0.71 in18.0 mm
01:47 AM 62.6°F17.0°C 62.0°F16.7°C 98% Calm Calm 3.0 mph4.8 kmh 29.77 in1008.1 mb 0.55 in14.0 mm 0.60 in/hr15.2 mm/hr 0.71 in18.0 mm
01:46 AM 62.7°F17.1°C 62.1°F16.7°C 98% Calm Calm 3.0 mph4.8 kmh 29.77 in1008.1 mb 0.54 in13.7 mm 0.00 in/hr0.0 mm/hr 0.70 in17.8 mm
01:45 AM 62.6°F17.0°C 62.0°F16.7°C 98% Calm Calm 3.0 mph4.8 kmh 29.77 in1008.1 mb 0.54 in13.7 mm 0.00 in/hr0.0 mm/hr 0.70 in17.8 mm
01:44 AM 62.6°F17.0°C 62.0°F16.7°C 98% Calm Calm 3.0 mph4.8 kmh 29.77 in1008.1 mb 0.54 in13.7 mm 0.60 in/hr15.2 mm/hr 0.70 in17.8 mm
01:43 AM 62.5°F16.9°C 61.9°F16.6°C 98% 1.0 mph ESE1.6 kmh ESE 3.0 mph4.8 kmh 29.77 in1008.1 mb 0.53 in13.5 mm 0.00 in/hr0.0 mm/hr 0.69 in17.5 mm
01:42 AM 62.5°F16.9°C 61.9°F16.6°C 98% 2.0 mph ESE3.2 kmh ESE 3.0 mph4.8 kmh 29.77 in1008.1 mb 0.53 in13.5 mm 0.00 in/hr0.0 mm/hr 0.69 in17.5 mm
01:41 AM 62.5°F16.9°C 61.6°F16.4°C 97% 1.0 mph ENE1.6 kmh ENE 3.0 mph4.8 kmh 29.77 in1008.1 mb 0.53 in13.5 mm 0.60 in/hr15.2 mm/hr 0.69 in17.5 mm
01:40 AM 62.5°F16.9°C 61.6°F16.4°C 97% Calm Calm 2.0 mph3.2 kmh 29.77 in1008.1 mb 0.52 in13.2 mm 0.00 in/hr0.0 mm/hr 0.68 in17.3 mm
01:39 AM 62.5°F16.9°C 61.6°F16.4°C 97% Calm Calm 2.0 mph3.2 kmh 29.77 in1008.1 mb 0.52 in13.2 mm 0.00 in/hr0.0 mm/hr 0.68 in17.3 mm
01:38 AM 62.6°F17.0°C 61.7°F16.5°C 97% 1.0 mph N1.6 kmh N 2.0 mph3.2 kmh 29.77 in1008.1 mb 0.52 in13.2 mm 0.60 in/hr15.2 mm/hr 0.68 in17.3 mm
01:37 AM 62.6°F17.0°C 61.7°F16.5°C 97% 1.0 mph N1.6 kmh N 2.0 mph3.2 kmh 29.78 in1008.5 mb 0.51 in13.0 mm 0.00 in/hr0.0 mm/hr 0.67 in17.0 mm
01:36 AM 62.6°F17.0°C 61.7°F16.5°C 97% 1.0 mph NNW1.6 kmh NNW 2.0 mph3.2 kmh 29.78 in1008.5 mb 0.51 in13.0 mm 0.00 in/hr0.0 mm/hr 0.67 in17.0 mm
01:35 AM 62.6°F17.0°C 61.7°F16.5°C 97% Calm Calm 2.0 mph3.2 kmh 29.78 in1008.5 mb 0.51 in13.0 mm 0.60 in/hr15.2 mm/hr 0.67 in17.0 mm
01:34 AM 62.6°F17.0°C 61.7°F16.5°C 97% Calm Calm 2.0 mph3.2 kmh 29.78 in1008.5 mb 0.50 in12.7 mm 0.60 in/hr15.2 mm/hr 0.66 in16.8 mm
01:33 AM 62.6°F17.0°C 61.7°F16.5°C 97% 1.0 mph NNW1.6 kmh NNW 2.0 mph3.2 kmh 29.77 in1008.1 mb 0.49 in12.4 mm 0.60 in/hr15.2 mm/hr 0.65 in16.5 mm
01:32 AM 62.6°F17.0°C 61.7°F16.5°C 97% Calm Calm 1.0 mph1.6 kmh 29.77 in1008.1 mb 0.48 in12.2 mm 1.20 in/hr30.5 mm/hr 0.64 in16.3 mm
01:31 AM 62.6°F17.0°C 61.7°F16.5°C 97% 1.0 mph SW1.6 kmh SW 7.0 mph11.3 kmh 29.77 in1008.1 mb 0.46 in11.7 mm 2.40 in/hr61.0 mm/hr 0.62 in15.7 mm
01:30 AM 62.7°F17.1°C 61.8°F16.6°C 97% Calm Calm 7.0 mph11.3 kmh 29.78 in1008.5 mb 0.42 in10.7 mm 1.20 in/hr30.5 mm/hr 0.58 in14.7 mm
01:29 AM 62.7°F17.1°C 61.8°F16.6°C 97% 1.0 mph SSW1.6 kmh SSW 7.0 mph11.3 kmh 29.78 in1008.5 mb 0.40 in10.2 mm 2.40 in/hr61.0 mm/hr 0.56 in14.2 mm
01:28 AM 62.7°F17.1°C 61.8°F16.6°C 97% 1.0 mph SSW1.6 kmh SSW 7.0 mph11.3 kmh 29.78 in1008.5 mb 0.36 in9.1 mm 0.60 in/hr15.2 mm/hr 0.52 in13.2 mm
01:27 AM 62.7°F17.1°C 61.8°F16.6°C 97% Calm Calm 7.0 mph11.3 kmh 29.78 in1008.5 mb 0.35 in8.9 mm 0.00 in/hr0.0 mm/hr 0.51 in13.0 mm
01:26 AM 62.7°F17.1°C 61.8°F16.6°C 97% Calm Calm 7.0 mph11.3 kmh 29.78 in1008.5 mb 0.35 in8.9 mm 0.60 in/hr15.2 mm/hr 0.51 in13.0 mm
01:25 AM 62.7°F17.1°C 61.8°F16.6°C 97% Calm Calm 7.0 mph11.3 kmh 29.78 in1008.5 mb 0.34 in8.6 mm 0.60 in/hr15.2 mm/hr 0.50 in12.7 mm
01:24 AM 62.7°F17.1°C 61.8°F16.6°C 97% 1.0 mph SE1.6 kmh SE 7.0 mph11.3 kmh 29.78 in1008.5 mb 0.33 in8.4 mm 0.60 in/hr15.2 mm/hr 0.49 in12.4 mm
01:23 AM 62.7°F17.1°C 61.8°F16.6°C 97% 2.0 mph SE3.2 kmh SE 7.0 mph11.3 kmh 29.78 in1008.5 mb 0.32 in8.1 mm 0.60 in/hr15.2 mm/hr 0.48 in12.2 mm
01:21 AM 62.7°F17.1°C 61.8°F16.6°C 97% 3.0 mph ESE4.8 kmh ESE 7.0 mph11.3 kmh 29.77 in1008.1 mb 0.30 in7.6 mm 3.00 in/hr76.2 mm/hr 0.46 in11.7 mm
01:20 AM 62.8°F17.1°C 61.7°F16.5°C 96% 2.0 mph NW3.2 kmh NW 7.0 mph11.3 kmh 29.77 in1008.1 mb 0.25 in6.4 mm 1.80 in/hr45.7 mm/hr 0.41 in10.4 mm
01:19 AM 62.8°F17.1°C 61.7°F16.5°C 96% 1.0 mph WSW1.6 kmh WSW 7.0 mph11.3 kmh 29.77 in1008.1 mb 0.22 in5.6 mm 1.80 in/hr45.7 mm/hr 0.38 in9.7 mm
01:18 AM 62.9°F17.2°C 61.8°F16.6°C 96% 2.0 mph WSW3.2 kmh WSW 7.0 mph11.3 kmh 29.77 in1008.1 mb 0.19 in4.8 mm 2.40 in/hr61.0 mm/hr 0.35 in8.9 mm
01:17 AM 63.0°F17.2°C 61.9°F16.6°C 96% 1.0 mph SSW1.6 kmh SSW 7.0 mph11.3 kmh 29.78 in1008.5 mb 0.15 in3.8 mm 1.20 in/hr30.5 mm/hr 0.31 in7.9 mm
01:16 AM 63.0°F17.2°C 61.9°F16.6°C 96% 1.0 mph SSW1.6 kmh SSW 7.0 mph11.3 kmh 29.78 in1008.5 mb 0.13 in3.3 mm 0.00 in/hr0.0 mm/hr 0.29 in7.4 mm
01:15 AM 63.0°F17.2°C 61.9°F16.6°C 96% Calm Calm 7.0 mph11.3 kmh 29.77 in1008.1 mb 0.13 in3.3 mm 0.60 in/hr15.2 mm/hr 0.29 in7.4 mm
01:14 AM 63.2°F17.3°C 62.0°F16.7°C 96% 2.0 mph ESE3.2 kmh ESE 7.0 mph11.3 kmh 29.78 in1008.5 mb 0.12 in3.0 mm 0.60 in/hr15.2 mm/hr 0.28 in7.1 mm
01:13 AM 63.3°F17.4°C 62.1°F16.7°C 96% 5.0 mph E8.0 kmh E 7.0 mph11.3 kmh 29.78 in1008.5 mb 0.11 in2.8 mm 0.60 in/hr15.2 mm/hr 0.27 in6.9 mm
01:12 AM 63.3°F17.4°C 62.1°F16.7°C 96% 4.0 mph SSW6.4 kmh SSW 4.0 mph6.4 kmh 29.77 in1008.1 mb 0.10 in2.5 mm 0.60 in/hr15.2 mm/hr 0.26 in6.6 mm
01:11 AM 63.3°F17.4°C 62.1°F16.7°C 96% Calm Calm 4.0 mph6.4 kmh 29.77 in1008.1 mb 0.09 in2.3 mm 0.60 in/hr15.2 mm/hr 0.25 in6.4 mm
01:10 AM 63.4°F17.4°C 62.2°F16.8°C 96% 2.0 mph NW3.2 kmh NW 4.0 mph6.4 kmh 29.78 in1008.5 mb 0.08 in2.0 mm 1.80 in/hr45.7 mm/hr 0.24 in6.1 mm
01:09 AM 63.4°F17.4°C 62.2°F16.8°C 96% Calm Calm 4.0 mph6.4 kmh 29.79 in1008.8 mb 0.05 in1.3 mm 1.20 in/hr30.5 mm/hr 0.21 in5.3 mm
01:08 AM 63.4°F17.4°C 62.0°F16.7°C 95% 1.0 mph WNW1.6 kmh WNW 4.0 mph6.4 kmh 29.78 in1008.5 mb 0.03 in0.8 mm 0.60 in/hr15.2 mm/hr 0.19 in4.8 mm
01:07 AM 63.4°F17.4°C 62.0°F16.7°C 95% Calm Calm 4.0 mph6.4 kmh 29.77 in1008.1 mb 0.02 in0.5 mm 0.00 in/hr0.0 mm/hr 0.18 in4.6 mm
01:06 AM 63.5°F17.5°C 62.1°F16.7°C 95% 1.0 mph WSW1.6 kmh WSW 4.0 mph6.4 kmh 29.76 in1007.8 mb 0.02 in0.5 mm 0.00 in/hr0.0 mm/hr 0.18 in4.6 mm
01:05 AM 63.6°F17.6°C 62.2°F16.8°C 95% 1.0 mph NW1.6 kmh NW 4.0 mph6.4 kmh 29.76 in1007.8 mb 0.02 in0.5 mm 0.00 in/hr0.0 mm/hr 0.18 in4.6 mm
01:04 AM 63.7°F17.6°C 62.2°F16.8°C 95% 4.0 mph NW6.4 kmh NW 4.0 mph6.4 kmh 29.77 in1008.1 mb 0.02 in0.5 mm 0.60 in/hr15.2 mm/hr 0.18 in4.6 mm
01:03 AM 63.8°F17.7°C 62.3°F16.8°C 95% 2.0 mph WNW3.2 kmh WNW 3.0 mph4.8 kmh 29.77 in1008.1 mb 0.01 in0.3 mm 0.00 in/hr0.0 mm/hr 0.17 in4.3 mm
01:02 AM 63.9°F17.7°C 62.1°F16.7°C 94% 1.0 mph N1.6 kmh N 3.0 mph4.8 kmh 29.77 in1008.1 mb 0.01 in0.3 mm 0.00 in/hr0.0 mm/hr 0.17 in4.3 mm
01:01 AM 63.9°F17.7°C 62.1°F16.7°C 94% 1.0 mph WSW1.6 kmh WSW 7.0 mph11.3 kmh 29.77 in1008.1 mb 0.01 in0.3 mm 0.60 in/hr15.2 mm/hr 0.17 in4.3 mm
01:00 AM 64.1°F17.8°C 62.3°F16.8°C 94% 3.0 mph SW4.8 kmh SW 7.0 mph11.3 kmh 29.77 in1008.1 mb 0.00 in0.0 mm 0.00 in/hr0.0 mm/hr 0.16 in4.1 mm
12:59 AM 64.2°F17.9°C 62.1°F16.7°C 93% 3.0 mph SW4.8 kmh SW 7.0 mph11.3 kmh 29.77 in1008.1 mb 0.00 in0.0 mm 0.00 in/hr0.0 mm/hr 0.16 in4.1 mm
12:58 AM 64.4°F18.0°C 62.3°F16.8°C 93% 2.0 mph WSW3.2 kmh WSW 7.0 mph11.3 kmh 29.76 in1007.8 mb 0.00 in0.0 mm 0.00 in/hr0.0 mm/hr 0.16 in4.1 mm
12:57 AM 64.7°F18.2°C 62.6°F17.0°C 93% 2.0 mph W3.2 kmh W 7.0 mph11.3 kmh 29.77 in1008.1 mb 0.00 in0.0 mm 0.00 in/hr0.0 mm/hr 0.16 in4.1 mm
12:56 AM 65.0°F18.3°C 62.6°F17.0°C 92% 4.0 mph WSW6.4 kmh WSW 7.0 mph11.3 kmh 29.77 in1008.1 mb 0.00 in0.0 mm 0.00 in/hr0.0 mm/hr 0.16 in4.1 mm
12:55 AM 65.3°F18.5°C 62.9°F17.2°C 92% 3.0 mph WSW4.8 kmh WSW 7.0 mph11.3 kmh 29.76 in1007.8 mb 0.00 in0.0 mm 0.00 in/hr0.0 mm/hr 0.16 in4.1 mm
12:54 AM 65.7°F18.7°C 63.0°F17.2°C 91% 3.0 mph WSW4.8 kmh WSW 7.0 mph11.3 kmh 29.76 in1007.8 mb 0.00 in0.0 mm 0.00 in/hr0.0 mm/hr 0.16 in4.1 mm
12:53 AM 66.2°F19.0°C 64.1°F17.8°C 93% 6.0 mph WSW9.7 kmh WSW 6.0 mph9.7 kmh 29.76 in1007.8 mb 0.00 in0.0 mm 0.00 in/hr0.0 mm/hr 0.16 in4.1 mm
12:52 AM 66.4°F19.1°C 64.6°F18.1°C 94% 3.0 mph WSW4.8 kmh WSW 5.0 mph8.0 kmh 29.75 in1007.5 mb 0.00 in0.0 mm 0.00 in/hr0.0 mm/hr 0.16 in4.1 mm
12:51 AM 66.7°F19.3°C 65.2°F18.4°C 95% 3.0 mph WSW4.8 kmh WSW 5.0 mph8.0 kmh 29.75 in1007.5 mb 0.00 in0.0 mm 0.00 in/hr0.0 mm/hr 0.16 in4.1 mm
12:50 AM 66.8°F19.3°C 65.6°F18.7°C 96% 3.0 mph WSW4.8 kmh WSW 5.0 mph8.0 kmh 29.75 in1007.5 mb 0.00 in0.0 mm 0.00 in/hr0.0 mm/hr 0.16 in4.1 mm
12:49 AM 66.8°F19.3°C 65.6°F18.7°C 96% 1.0 mph SW1.6 kmh SW 5.0 mph8.0 kmh 29.75 in1007.5 mb 0.00 in0.0 mm 0.00 in/hr0.0 mm/hr 0.16 in4.1 mm
12:48 AM 66.7°F19.3°C 65.5°F18.6°C 96% 2.0 mph SSW3.2 kmh SSW 5.0 mph8.0 kmh 29.75 in1007.5 mb 0.00 in0.0 mm 0.00 in/hr0.0 mm/hr 0.16 in4.1 mm
12:47 AM 66.6°F19.2°C 65.4°F18.6°C 96% 1.0 mph WSW1.6 kmh WSW 5.0 mph8.0 kmh 29.75 in1007.5 mb 0.00 in0.0 mm 0.00 in/hr0.0 mm/hr 0.16 in4.1 mm
12:46 AM 66.6°F19.2°C 65.1°F18.4°C 95% 1.0 mph WSW1.6 kmh WSW 5.0 mph8.0 kmh 29.75 in1007.5 mb 0.00 in0.0 mm 0.00 in/hr0.0 mm/hr 0.16 in4.1 mm
12:45 AM 66.5°F19.2°C 65.3°F18.5°C 96% 3.0 mph WSW4.8 kmh WSW 5.0 mph8.0 kmh 29.75 in1007.5 mb 0.00 in0.0 mm 0.00 in/hr0.0 mm/hr 0.16 in4.1 mm
12:44 AM 66.5°F19.2°C 65.3°F18.5°C 96% 1.0 mph WSW1.6 kmh WSW 5.0 mph8.0 kmh 29.75 in1007.5 mb 0.00 in0.0 mm 0.00 in/hr0.0 mm/hr 0.16 in4.1 mm
12:43 AM 66.4°F19.1°C 64.9°F18.3°C 95% 1.0 mph SE1.6 kmh SE 5.0 mph8.0 kmh 29.75 in1007.5 mb 0.00 in0.0 mm 0.00 in/hr0.0 mm/hr 0.16 in4.1 mm
12:42 AM 66.3°F19.1°C 64.8°F18.2°C 95% Calm Calm 5.0 mph8.0 kmh 29.75 in1007.5 mb 0.00 in0.0 mm 0.00 in/hr0.0 mm/hr 0.16 in4.1 mm
12:41 AM 66.2°F19.0°C 64.1°F17.8°C 93% 5.0 mph SE8.0 kmh SE 5.0 mph8.0 kmh 29.75 in1007.5 mb 0.00 in0.0 mm 0.00 in/hr0.0 mm/hr 0.16 in4.1 mm
12:40 AM 66.3°F19.1°C 64.2°F17.9°C 93% 2.0 mph WSW3.2 kmh WSW 5.0 mph8.0 kmh 29.75 in1007.5 mb 0.00 in0.0 mm 0.00 in/hr0.0 mm/hr 0.16 in4.1 mm
12:38 AM 66.6°F19.2°C 64.8°F18.2°C 94% 3.0 mph NW4.8 kmh NW 5.0 mph8.0 kmh 29.75 in1007.5 mb 0.00 in0.0 mm 0.00 in/hr0.0 mm/hr 0.16 in4.1 mm
12:37 AM 66.7°F19.3°C 65.2°F18.4°C 95% Calm Calm 5.0 mph8.0 kmh 29.75 in1007.5 mb 0.00 in0.0 mm 0.00 in/hr0.0 mm/hr 0.16 in4.1 mm
12:36 AM 66.7°F19.3°C 65.2°F18.4°C 95% 1.0 mph WSW1.6 kmh WSW 5.0 mph8.0 kmh 29.75 in1007.5 mb 0.00 in0.0 mm 0.00 in/hr0.0 mm/hr 0.16 in4.1 mm
12:35 AM 66.7°F19.3°C 65.2°F18.4°C 95% 3.0 mph W4.8 kmh W 5.0 mph8.0 kmh 29.75 in1007.5 mb 0.00 in0.0 mm 0.00 in/hr0.0 mm/hr 0.16 in4.1 mm
12:34 AM 66.6°F19.2°C 65.1°F18.4°C 95% Calm Calm 5.0 mph8.0 kmh 29.75 in1007.5 mb 0.00 in0.0 mm 0.00 in/hr0.0 mm/hr 0.16 in4.1 mm
12:33 AM 66.6°F19.2°C 65.1°F18.4°C 95% 2.0 mph ESE3.2 kmh ESE 5.0 mph8.0 kmh 29.74 in1007.1 mb 0.00 in0.0 mm 0.00 in/hr0.0 mm/hr 0.16 in4.1 mm
12:32 AM 66.5°F19.2°C 65.0°F18.3°C 95% 2.0 mph SE3.2 kmh SE 5.0 mph8.0 kmh 29.74 in1007.1 mb 0.00 in0.0 mm 0.00 in/hr0.0 mm/hr 0.16 in4.1 mm
12:31 AM 66.4°F19.1°C 64.9°F18.3°C 95% 1.0 mph SSW1.6 kmh SSW 9.0 mph14.5 kmh 29.74 in1007.1 mb 0.00 in0.0 mm 0.00 in/hr0.0 mm/hr 0.16 in4.1 mm
12:30 AM 66.3°F19.1°C 64.8°F18.2°C 95% 1.0 mph ESE1.6 kmh ESE 9.0 mph14.5 kmh 29.74 in1007.1 mb 0.00 in0.0 mm 0.00 in/hr0.0 mm/hr 0.16 in4.1 mm
12:29 AM 66.3°F19.1°C 64.8°F18.2°C 95% 5.0 mph ENE8.0 kmh ENE 9.0 mph14.5 kmh 29.74 in1007.1 mb 0.00 in0.0 mm 0.00 in/hr0.0 mm/hr 0.16 in4.1 mm
12:28 AM 66.3°F19.1°C 64.8°F18.2°C 95% 2.0 mph SE3.2 kmh SE 9.0 mph14.5 kmh 29.74 in1007.1 mb 0.00 in0.0 mm 0.00 in/hr0.0 mm/hr 0.16 in4.1 mm
12:27 AM 66.2°F19.0°C 64.7°F18.2°C 95% 3.0 mph SE4.8 kmh SE 9.0 mph14.5 kmh 29.74 in1007.1 mb 0.00 in0.0 mm 0.00 in/hr0.0 mm/hr 0.16 in4.1 mm
12:26 AM 66.2°F19.0°C 64.7°F18.2°C 95% 2.0 mph ESE3.2 kmh ESE 8.0 mph12.9 kmh 29.74 in1007.1 mb 0.00 in0.0 mm 0.00 in/hr0.0 mm/hr 0.16 in4.1 mm
12:25 AM 66.1°F18.9°C 64.6°F18.1°C 95% 4.0 mph ESE6.4 kmh ESE 8.0 mph12.9 kmh 29.74 in1007.1 mb 0.00 in0.0 mm 0.00 in/hr0.0 mm/hr 0.16 in4.1 mm
12:24 AM 66.0°F18.9°C 64.2°F17.9°C 94% 3.0 mph SE4.8 kmh SE 8.0 mph12.9 kmh 29.74 in1007.1 mb 0.00 in0.0 mm 0.00 in/hr0.0 mm/hr 0.16 in4.1 mm
12:23 AM 66.0°F18.9°C 64.2°F17.9°C 94% 2.0 mph SE3.2 kmh SE 8.0 mph12.9 kmh 29.74 in1007.1 mb 0.00 in0.0 mm 0.00 in/hr0.0 mm/hr 0.16 in4.1 mm
12:22 AM 66.0°F18.9°C 64.2°F17.9°C 94% 2.0 mph ESE3.2 kmh ESE 8.0 mph12.9 kmh 29.73 in1006.8 mb 0.00 in0.0 mm 0.00 in/hr0.0 mm/hr 0.16 in4.1 mm
12:21 AM 65.9°F18.8°C 64.1°F17.8°C 94% Calm Calm 8.0 mph12.9 kmh 29.73 in1006.8 mb 0.00 in0.0 mm 0.00 in/hr0.0 mm/hr 0.16 in4.1 mm
12:20 AM 65.9°F18.8°C 64.1°F17.8°C 94% 1.0 mph E1.6 kmh E 8.0 mph12.9 kmh 29.73 in1006.8 mb 0.00 in0.0 mm 0.00 in/hr0.0 mm/hr 0.16 in4.1 mm
12:19 AM 65.9°F18.8°C 64.1°F17.8°C 94% 1.0 mph SW1.6 kmh SW 8.0 mph12.9 kmh 29.73 in1006.8 mb 0.00 in0.0 mm 0.00 in/hr0.0 mm/hr 0.16 in4.1 mm
12:18 AM 65.8°F18.8°C 64.0°F17.8°C 94% Calm Calm 8.0 mph12.9 kmh 29.73 in1006.8 mb 0.00 in0.0 mm 0.00 in/hr0.0 mm/hr 0.16 in4.1 mm
12:17 AM 65.7°F18.7°C 63.9°F17.7°C 94% Calm Calm 8.0 mph12.9 kmh 29.73 in1006.8 mb 0.00 in0.0 mm 0.00 in/hr0.0 mm/hr 0.16 in4.1 mm
12:16 AM 65.6°F18.7°C 63.8°F17.7°C 94% 2.0 mph SW3.2 kmh SW 8.0 mph12.9 kmh 29.73 in1006.8 mb 0.00 in0.0 mm 0.00 in/hr0.0 mm/hr 0.16 in4.1 mm
12:15 AM 65.5°F18.6°C 63.7°F17.6°C 94% Calm Calm 8.0 mph12.9 kmh 29.73 in1006.8 mb 0.00 in0.0 mm 0.00 in/hr0.0 mm/hr 0.16 in4.1 mm
12:14 AM 65.3°F18.5°C 63.8°F17.7°C 95% 1.0 mph E1.6 kmh E 8.0 mph12.9 kmh 29.73 in1006.8 mb 0.00 in0.0 mm 0.00 in/hr0.0 mm/hr 0.16 in4.1 mm
12:13 AM 65.1°F18.4°C 63.6°F17.6°C 95% 3.0 mph SE4.8 kmh SE 5.0 mph8.0 kmh 29.73 in1006.8 mb 0.00 in0.0 mm 0.00 in/hr0.0 mm/hr 0.16 in4.1 mm
12:12 AM 65.0°F18.3°C 63.2°F17.3°C 94% 3.0 mph ESE4.8 kmh ESE 4.0 mph6.4 kmh 29.74 in1007.1 mb 0.00 in0.0 mm 0.00 in/hr0.0 mm/hr 0.16 in4.1 mm
12:11 AM 64.9°F18.3°C 63.1°F17.3°C 94% 2.0 mph SE3.2 kmh SE 4.0 mph6.4 kmh 29.73 in1006.8 mb 0.00 in0.0 mm 0.00 in/hr0.0 mm/hr 0.16 in4.1 mm
12:10 AM 64.8°F18.2°C 63.0°F17.2°C 94% 1.0 mph SE1.6 kmh SE 4.0 mph6.4 kmh 29.73 in1006.8 mb 0.00 in0.0 mm 0.00 in/hr0.0 mm/hr 0.16 in4.1 mm
12:09 AM 64.7°F18.2°C 62.6°F17.0°C 93% 3.0 mph SSW4.8 kmh SSW 3.0 mph4.8 kmh 29.74 in1007.1 mb 0.00 in0.0 mm 0.00 in/hr0.0 mm/hr 0.16 in4.1 mm
12:08 AM 64.6°F18.1°C 62.5°F16.9°C 93% 1.0 mph SE1.6 kmh SE 2.0 mph3.2 kmh 29.74 in1007.1 mb 0.00 in0.0 mm 0.00 in/hr0.0 mm/hr 0.16 in4.1 mm
12:07 AM 64.6°F18.1°C 62.5°F16.9°C 93% 1.0 mph SE1.6 kmh SE 2.0 mph3.2 kmh 29.74 in1007.1 mb 0.00 in0.0 mm 0.00 in/hr0.0 mm/hr 0.16 in4.1 mm
12:06 AM 64.5°F18.1°C 62.4°F16.9°C 93% 1.0 mph SE1.6 kmh SE 1.0 mph1.6 kmh 29.74 in1007.1 mb 0.00 in0.0 mm 0.00 in/hr0.0 mm/hr 0.16 in4.1 mm
12:05 AM 64.5°F18.1°C 62.4°F16.9°C 93% 1.0 mph SE1.6 kmh SE 1.0 mph1.6 kmh 29.74 in1007.1 mb 0.00 in0.0 mm 0.00 in/hr0.0 mm/hr 0.16 in4.1 mm
12:04 AM 64.5°F18.1°C 62.4°F16.9°C 93% Calm Calm 1.0 mph1.6 kmh 29.74 in1007.1 mb 0.00 in0.0 mm 0.00 in/hr0.0 mm/hr 0.16 in4.1 mm
12:03 AM 64.5°F18.1°C 62.4°F16.9°C 93% Calm Calm 1.0 mph1.6 kmh 29.74 in1007.1 mb 0.00 in0.0 mm 0.00 in/hr0.0 mm/hr 0.16 in4.1 mm
12:02 AM 64.5°F18.1°C 62.4°F16.9°C 93% Calm Calm -- 29.74 in1007.1 mb 0.00 in0.0 mm 0.00 in/hr0.0 mm/hr 0.16 in4.1 mm
12:01 AM 64.5°F18.1°C 62.4°F16.9°C 93% 3.0 mph ESE4.8 kmh ESE 6.0 mph9.7 kmh 29.73 in1006.8 mb 0.16 in4.1 mm 0.00 in/hr0.0 mm/hr 0.16 in4.1 mm
12:00 AM 64.4°F18.0°C 62.3°F16.8°C 93% 2.0 mph ESE3.2 kmh ESE 6.0 mph9.7 kmh 29.73 in1006.8 mb 0.16 in4.1 mm 0.00 in/hr0.0 mm/hr 0.16 in4.1 mm